Current Month

Pierce College

Hourly Data | America/Los_Angeles
as of 10/20/21 12:40 PM PDT
Date & Time Temp Max (°F) Temp Min (°F) RH (%) Dew Pt (°F) Latest Rain (In) Soil Temp (°F) Soil Moist (%) Wind Spd (mph) Wind Dir (°) Wind Gust (mph) Leaf Wet Raw (mV) Net Radiation (W/m²) Evap Pan Max Wind (mph) Evap Pan H2O Max Temp (°F) Evap Pan Level (In)
10/20/21 - 1200 74.4 69.4 33 40.4 0.00 69.8 21.5 1.7 SSW | 210 5.5 264 410 4.3 81.3 3.8
10/20/21 - 1100 69.7 64.0 46 44.5 0.00 68.5 21.5 1.1 WSW | 246 4.9 265 345 4.1 71.1 3.8
10/20/21 - 1000 64.1 59.1 54 44.9 0.00 69.3 21.6 0.5 N | 360 3.7 266 242 2.2 63.7 3.7
10/20/21 - 0900 59.8 47.2 71 44.8 0.00 69.4 21.6 0.3 NE | 55 1.6 268 124 1.0 52.4 3.7
10/20/21 - 0800 47.2 44.3 86 41.3 0.00 69.7 21.6 0.2 SSE | 158 1.1 312 -7 0.9 40.0 3.7
10/20/21 - 0700 46.6 44.5 84 40.9 0.00 70.7 21.6 0.4 SSE | 161 2.2 295 -27 1.1 40.5 3.7
10/20/21 - 0600 46.6 44.5 85 40.8 0.00 70.4 21.6 0.5 SSE | 156 2.8 283 -32 1.1 39.4 3.7
10/20/21 - 0500 46.3 45.0 83 40.8 0.00 70.2 21.6 0.1 SSE | 168 1.2 277 -41 0.0 38.8 3.7
10/20/21 - 0400 46.7 45.3 81 40.7 0.00 71.0 21.7 0.4 SSE | 159 1.4 274 -49 0.0 38.8 3.7
10/20/21 - 0300 47.5 46.1 78 40.6 0.00 70.9 21.7 0.3 SSE | 166 1.6 273 -54 0.0 39.2 3.7
10/20/21 - 0200 48.8 46.8 76 40.7 0.00 71.0 21.8 0.4 SSE | 168 1.4 271 -56 0.0 40.7 3.7
10/20/21 - 0100 50.1 47.6 73 40.8 0.00 71.2 21.8 0.4 SSE | 162 1.3 271 -58 0.6 41.9 3.7
10/20/21 - 0000 53.9 50.0 68 41.4 0.00 71.0 21.8 0.2 S | 171 1.2 270 -61 1.1 47.6 3.7
10/19/21 - 2300 56.0 53.6 63 42.8 0.00 71.2 21.8 1.4 S | 182 4.5 269 -68 2.5 52.8 3.7
10/19/21 - 2200 57.2 55.8 62 43.7 0.00 71.8 21.8 2.9 SSW | 209 6.6 269 -72 4.6 54.6 3.7
10/19/21 - 2100 59.8 56.9 62 45.3 0.00 71.6 21.8 2.4 SSW | 211 6.1 269 -75 4.1 57.0 3.7
10/19/21 - 2000 61.5 59.7 57 44.9 0.00 71.6 21.8 1.8 SW | 219 6.0 268 -74 4.1 57.0 3.7
10/19/21 - 1900 65.2 61.4 48 43.2 0.00 71.1 21.8 1.9 S | 188 4.4 266 -79 2.7 64.4 3.7
10/19/21 - 1800 70.5 65.2 39 42.1 0.00 70.4 21.8 2.5 S | 184 6.3 266 -38 4.3 74.3 3.8
10/19/21 - 1700 71.6 69.7 32 39.0 0.00 70.5 21.7 3.1 SSE | 155 8.3 264 103 5.4 77.2 3.8
10/19/21 - 1600 74.2 71.3 30 39.3 0.00 69.6 21.7 2.8 E | 93 8.6 264 241 5.3 79.9 3.8
10/19/21 - 1500 74.3 72.1 28 37.7 0.00 69.5 21.7 2.2 ENE | 60 5.9 264 345 4.7 80.4 3.8
10/19/21 - 1400 73.3 69.1 31 39.0 0.00 69.2 21.6 1.7 N | 8 5.9 264 418 4.4 79.2 3.8
10/19/21 - 1300 69.9 67.4 38 42.0 0.00 70.3 21.6 2.0 NE | 35 5.7 264 446 5.2 75.8 3.8
10/19/21 - 1200 68.3 63.7 44 43.5 0.00 69.6 21.6 1.2 NE | 49 4.3 265 419 4.2 73.5 3.8
10/19/21 - 1100 63.9 59.5 51 43.8 0.00 70.0 21.6 1.4 NE | 46 5.1 266 354 3.0 68.8 3.7
10/19/21 - 1000 60.1 55.5 56 42.6 0.00 69.7 21.6 1.0 ENE | 61 3.8 266 283 2.7 62.3 3.7
10/19/21 - 0900 55.7 46.9 85 46.7 0.00 70.3 21.7 0.2 ENE | 62 2.6 276 143 1.6 51.0 3.7
10/19/21 - 0800 47.1 42.6 93 42.1 0.00 69.9 21.7 0.3 SSE | 158 1.8 340 10 0.0 38.2 3.7
10/19/21 - 0700 44.2 42.9 92 41.2 0.00 70.3 21.7 0.2 SSE | 163 1.1 350 -6 0.0 34.0 3.7
10/19/21 - 0600 45.0 43.7 92 42.0 0.00 70.6 21.8 0.2 S | 172 1.8 339 -7 0.0 35.6 3.7
10/19/21 - 0500 45.5 44.5 91 42.6 0.00 71.6 21.8 0.2 SSE | 164 1.1 336 -8 0.0 36.9 3.7
10/19/21 - 0400 46.7 45.1 91 43.2 0.00 71.4 21.8 0.2 S | 176 1.2 335 -10 0.8 38.7 3.7
10/19/21 - 0300 47.2 46.4 90 43.9 0.00 71.4 21.8 0.5 SSE | 168 1.5 348 -12 0.9 39.4 3.7
10/19/21 - 0200 48.6 47.2 88 44.8 0.00 72.0 21.9 0.4 S | 176 2.4 342 -16 1.4 41.8 3.7
10/19/21 - 0100 50.5 48.0 86 45.5 0.00 71.8 21.9 0.3 SSE | 156 2.0 318 -23 1.3 44.1 3.7
10/19/21 - 0000 51.1 50.2 85 46.2 0.00 72.4 21.9 0.9 SSE | 153 2.9 288 -37 2.0 45.0 3.7
10/18/21 - 2300 51.9 50.1 83 46.0 0.00 71.9 21.9 0.6 SSE | 166 2.7 274 -50 1.6 43.5 3.7
10/18/21 - 2200 54.2 51.7 79 46.5 0.00 72.4 22.0 0.3 SSE | 166 1.8 273 -61 0.0 46.3 3.7
10/18/21 - 2100 55.1 54.1 72 45.6 0.00 72.1 22.0 0.1 E | 87 2.7 273 -66 0.7 46.8 3.7
10/18/21 - 2000 58.3 54.5 60 42.5 0.00 72.7 22.0 0.1 SSE | 158 1.0 269 -68 0.0 53.5 3.7
10/18/21 - 1900 62.2 58.3 53 43.1 0.00 71.9 22.0 0.7 ENE | 77 2.9 267 -68 1.5 63.9 3.7
10/18/21 - 1800 64.1 62.1 48 42.7 0.00 72.2 22.0 2.7 SSE | 149 6.9 266 -15 5.0 67.9 3.7
10/18/21 - 1700 65.1 63.8 45 42.6 0.00 71.8 22.0 2.1 SSE | 149 6.2 266 -13 4.8 69.6 3.7
10/18/21 - 1600 66.8 64.3 45 43.6 0.00 71.8 21.9 4.3 SSE | 156 8.9 266 147 7.3 72.7 3.8
10/18/21 - 1500 68.3 65.4 44 43.8 0.00 71.7 21.9 4.6 S | 176 10.1 266 174 7.2 79.9 3.8
10/18/21 - 1400 69.2 66.2 42 44.0 0.00 70.6 21.9 4.9 S | 174 11.2 265 474 9.0 79.3 3.8
10/18/21 - 1300 69.1 63.3 46 45.2 0.00 71.6 21.9 3.6 SSE | 167 9.7 265 544 8.0 76.4 3.8
10/18/21 - 1200 66.3 61.6 56 47.7 0.00 71.5 21.9 3.4 SW | 234 8.2 268 329 6.6 73.9 3.7
10/18/21 - 1100 63.5 59.0 65 49.4 0.00 71.5 21.9 3.4 WSW | 251 9.4 268 267 6.7 71.1 3.7
10/18/21 - 1000 60.5 57.0 76 51.6 0.00 71.2 21.9 1.3 SW | 215 5.0 273 146 3.9 64.6 3.7
10/18/21 - 0900 57.7 56.7 82 51.8 0.01 71.4 22.0 1.1 WSW | 245 3.7 331 29 3.1 60.6 3.7
10/18/21 - 0800 57.6 56.8 79 50.6 0.00 71.4 21.9 1.0 SW | 216 2.6 273 -2 1.9 59.4 3.7
10/18/21 - 0700 57.1 56.3 80 50.6 0.00 72.0 21.9 0.4 SW | 215 2.1 271 -7 1.4 58.0 3.7
10/18/21 - 0600 56.9 56.4 81 50.9 0.00 71.8 21.9 0.5 W | 267 5.6 274 -7 4.5 59.6 3.7
10/18/21 - 0500 56.6 55.6 82 50.8 0.00 72.1 21.9 0.4 E | 90 1.6 300 -7 1.0 59.1 3.7
10/18/21 - 0400 56.7 55.6 80 50.0 0.00 71.9 22.0 0.1 SSW | 193 1.4 317 -7 0.0 57.8 3.7
10/18/21 - 0300 57.1 56.1 75 48.9 0.00 72.1 22.0 0.2 S | 169 2.1 337 -12 0.8 58.6 3.7
10/18/21 - 0200 56.3 52.7 80 48.7 0.00 72.3 22.0 0.8 S | 191 3.0 270 -15 2.3 57.0 3.7
10/18/21 - 0100 54.1 52.5 83 48.2 0.00 72.5 22.0 0.8 S | 180 2.0 272 -50 1.4 50.3 3.7
10/18/21 - 0000 56.2 54.0 79 49.2 0.00 71.5 22.0 1.4 SSW | 194 5.0 272 -55 3.3 54.8 3.7
10/17/21 - 2300 55.8 54.6 76 48.0 0.00 73.1 22.0 1.2 S | 184 4.1 271 -64 2.7 50.3 3.7
10/17/21 - 2200 57.2 55.2 74 47.7 0.00 72.8 22.0 0.9 S | 190 3.1 269 -65 2.1 50.4 3.7
10/17/21 - 2100 61.1 57.0 68 48.2 0.00 72.8 22.0 1.0 S | 189 2.8 269 -70 1.6 57.1 3.7
10/17/21 - 2000 64.1 60.9 60 48.6 0.00 72.8 22.1 1.1 WNW | 300 6.1 267 -79 5.0 61.0 3.7
10/17/21 - 1900 68.0 63.9 51 47.0 0.00 72.2 22.0 3.3 SW | 234 6.4 266 -80 4.6 66.6 3.7
10/17/21 - 1800 75.0 67.9 30 38.5 0.00 71.9 22.0 3.5 S | 188 8.9 264 -38 6.9 77.8 3.8
10/17/21 - 1700 77.1 74.8 23 35.7 0.00 72.4 21.9 3.4 SSW | 207 7.2 262 107 6.2 81.9 3.8
10/17/21 - 1600 77.6 76.0 23 35.6 0.00 71.6 21.9 4.2 S | 174 8.8 262 245 6.4 84.4 3.8
10/17/21 - 1500 79.3 76.9 21 34.9 0.00 71.4 21.8 4.8 S | 175 9.6 262 349 7.2 86.7 3.8
10/17/21 - 1400 81.1 78.3 20 35.2 0.00 70.0 21.8 4.1 SSE | 168 11.4 262 412 8.5 87.5 3.8
10/17/21 - 1300 80.3 77.4 21 35.5 0.00 71.3 21.7 1.9 E | 79 6.4 262 432 5.4 87.5 3.8
10/17/21 - 1200 78.6 75.0 17 28.7 0.00 71.5 21.7 1.4 NNE | 30 6.1 261 404 4.0 86.2 3.8
10/17/21 - 1100 75.5 70.8 18 27.4 0.00 70.6 21.7 1.3 NNE | 33 3.8 261 340 2.2 79.2 3.8
10/17/21 - 1000 70.9 63.2 26 30.4 0.00 70.4 21.8 0.7 NNE | 15 2.8 261 250 1.7 71.0 3.7
10/17/21 - 0900 63.2 50.8 36 32.2 0.00 71.8 21.8 0.5 NE | 36 2.3 263 102 1.3 56.5 3.7
10/17/21 - 0800 50.8 45.9 49 28.9 0.00 71.7 21.8 0.1 SSE | 159 1.0 266 -35 0.0 38.5 3.7
10/17/21 - 0700 47.5 45.8 46 26.7 0.00 72.2 21.8 0.2 SSE | 160 1.1 265 -55 0.0 36.7 3.7
10/17/21 - 0600 48.8 47.3 41 25.4 0.00 72.0 21.9 0.0 SSE | 150 0.7 265 -56 0.0 36.7 3.7
10/17/21 - 0500 49.5 48.1 39 25.1 0.00 72.8 21.9 0.1 SSE | 168 0.9 265 -58 0.0 38.0 3.7
10/17/21 - 0400 50.9 49.3 39 25.8 0.00 72.6 21.9 0.3 SSE | 162 1.3 265 -59 0.7 38.9 3.7
10/17/21 - 0300 52.8 50.2 37 26.0 0.00 72.8 22.0 0.2 S | 170 1.0 265 -61 0.0 39.3 3.7
10/17/21 - 0200 54.9 52.5 35 26.2 0.00 72.7 22.0 0.3 SSE | 156 1.3 264 -64 0.6 42.0 3.7
10/17/21 - 0100 56.2 54.1 31 24.7 0.00 72.8 22.0 0.7 SSE | 160 2.2 264 -66 0.7 43.9 3.7
10/17/21 - 0000 58.7 56.0 25 21.7 0.00 72.6 22.1 0.4 S | 173 2.2 263 -67 1.4 46.2 3.7
10/16/21 - 2300 61.5 58.6 21 20.4 0.00 73.3 22.1 0.6 S | 174 2.9 262 -68 2.5 51.6 3.7
10/16/21 - 2200 66.7 61.2 20 21.6 0.00 72.9 22.1 0.9 SSE | 157 2.5 262 -76 2.3 57.0 3.7
10/16/21 - 2100 71.0 66.7 17 21.8 0.00 72.6 22.1 1.5 S | 188 3.7 262 -83 2.4 59.5 3.7
10/16/21 - 2000 73.8 70.9 14 20.6 0.00 72.7 22.1 1.4 SW | 224 5.7 262 -87 3.6 65.1 3.7
10/16/21 - 1900 80.6 73.8 12 19.6 0.00 72.6 22.1 1.9 WSW | 255 5.9 261 -96 3.4 74.4 3.8
10/16/21 - 1800 86.3 80.6 7 13.5 0.00 71.9 22.0 2.6 S | 189 7.1 260 -51 5.0 87.9 3.8
10/16/21 - 1700 88.8 85.9 6 12.9 0.00 71.8 21.9 2.6 S | 173 7.7 260 91 6.3 93.1 3.8
10/16/21 - 1600 90.5 88.0 6 12.1 0.00 71.1 21.9 1.9 E | 95 6.1 260 225 4.4 93.4 3.8
10/16/21 - 1500 89.4 87.0 6 12.3 0.00 71.4 21.8 2.4 E | 91 6.6 260 333 3.8 93.6 3.8
10/16/21 - 1400 89.9 87.0 6 14.1 0.00 70.7 21.8 2.4 ENE | 72 7.9 259 400 4.6 93.2 3.8
10/16/21 - 1300 88.5 86.4 6 13.4 0.00 70.4 21.7 1.9 ENE | 68 5.5 259 428 3.8 93.6 3.8
10/16/21 - 1200 87.4 82.3 8 16.4 0.00 70.4 21.7 1.4 E | 91 5.0 259 405 3.6 92.1 3.8
10/16/21 - 1100 83.2 77.9 11 20.9 0.00 71.6 21.7 1.1 ESE | 104 4.8 260 341 2.5 89.1 3.8
10/16/21 - 1000 77.8 68.6 23 32.7 0.00 71.1 21.8 0.6 NE | 49 2.2 261 251 1.4 78.6 3.7
10/16/21 - 0900 68.9 58.0 25 28.8 0.00 71.0 21.8 0.5 NE | 49 1.7 262 104 0.7 62.2 3.7
10/16/21 - 0800 58.1 55.0 27 21.9 0.00 71.3 21.8 0.4 SE | 142 2.0 264 -39 1.0 46.3 3.7
10/16/21 - 0700 56.3 54.0 25 20.3 0.00 71.6 21.9 1.0 SSE | 149 3.2 263 -60 2.0 44.8 3.7
10/16/21 - 0600 55.7 53.7 25 19.7 0.00 71.6 21.9 0.4 SSE | 160 1.6 264 -60 2.2 42.2 3.7
10/16/21 - 0500 55.6 54.1 25 19.7 0.00 71.8 21.9 0.6 S | 172 2.1 263 -59 1.8 42.5 3.7
10/16/21 - 0400 56.1 54.2 25 19.9 0.00 72.0 21.9 0.5 S | 172 2.1 263 -62 2.0 44.6 3.7
10/16/21 - 0300 57.5 55.4 25 21.0 0.00 72.0 21.9 0.9 SSE | 158 2.6 263 -64 2.1 47.8 3.7
10/16/21 - 0200 60.9 56.6 22 19.6 0.00 72.3 21.9 1.1 S | 182 3.3 263 -66 2.2 51.1 3.7
10/16/21 - 0100 64.3 60.6 18 18.1 0.00 72.5 22.0 1.2 SSE | 150 3.2 262 -72 2.8 54.4 3.7
10/16/21 - 0000 67.2 63.4 15 16.0 0.00 72.6 22.0 1.4 SSE | 164 4.7 262 -75 4.2 56.2 3.7
10/15/21 - 2300 69.8 65.9 13 15.8 0.00 72.0 22.0 1.4 SSE | 160 3.7 262 -78 3.4 60.0 3.7
10/15/21 - 2200 75.1 69.6 10 14.4 0.00 72.7 22.0 1.2 ESE | 110 5.8 262 -87 2.7 67.4 3.7
10/15/21 - 2100 76.5 74.9 10 15.3 0.00 71.8 22.0 2.4 NNE | 17 7.6 261 -93 4.5 70.8 3.8
10/15/21 - 2000 78.1 76.4 10 16.7 0.00 72.0 22.0 3.7 N | 7 10.8 261 -96 4.3 72.4 3.8
10/15/21 - 1900 80.2 77.8 11 19.3 0.00 71.7 22.0 3.4 N | 4 11.2 261 -96 5.3 79.6 3.8
10/15/21 - 1800 82.7 80.2 10 20.2 0.00 70.6 21.9 3.8 N | 2 15.7 261 -40 6.0 86.8 3.8
10/15/21 - 1700 85.2 82.6 9 20.1 0.00 70.7 21.9 4.2 N | 3 12.7 261 105 5.5 91.6 3.8
10/15/21 - 1600 86.6 84.4 10 22.2 0.00 71.3 21.8 4.0 N | 2 12.1 261 240 5.4 94.0 3.8
10/15/21 - 1500 87.0 85.5 10 22.9 0.00 70.8 21.8 3.4 N | 357 10.6 261 344 5.9 94.8 3.8
10/15/21 - 1400 86.3 84.5 10 23.4 0.00 70.2 21.8 4.1 N | 5 14.2 260 412 6.6 95.0 3.8
10/15/21 - 1300 85.5 82.3 11 23.7 0.00 69.1 21.7 3.7 N | 2 12.5 261 440 6.6 94.5 3.8
10/15/21 - 1200 83.2 79.6 12 23.9 0.00 69.8 21.7 3.8 N | 3 11.9 261 417 6.6 92.5 3.8
10/15/21 - 1100 79.7 77.3 14 24.6 0.00 70.0 21.7 3.4 N | 8 11.7 261 350 5.6 86.5 3.8
10/15/21 - 1000 79.1 75.8 15 25.6 0.00 70.1 21.7 0.8 NE | 44 3.0 261 252 2.7 80.8 3.7
10/15/21 - 0900 75.8 60.9 22 28.2 0.00 70.5 21.8 0.9 SE | 133 3.8 262 106 2.4 64.8 3.7
10/15/21 - 0800 60.8 55.7 32 27.7 0.00 70.4 21.8 1.4 SSE | 148 3.6 265 -37 2.0 51.1 3.7
10/15/21 - 0700 57.0 52.5 33 26.6 0.00 70.6 21.8 1.1 SSE | 154 2.8 265 -58 2.4 46.1 3.7
10/15/21 - 0600 55.1 52.7 34 26.6 0.00 71.0 21.8 1.1 SSE | 150 3.4 265 -58 2.7 44.9 3.7
10/15/21 - 0500 53.1 48.6 43 28.2 0.00 71.3 21.8 0.6 SSE | 160 2.7 266 -54 1.5 40.9 3.7
10/15/21 - 0400 49.7 48.1 48 30.3 0.00 71.1 21.9 0.4 S | 171 2.0 266 -56 1.5 40.8 3.7
10/15/21 - 0300 52.7 49.5 47 31.6 0.00 71.7 21.9 0.3 SSE | 154 1.8 266 -58 0.6 41.4 3.7
10/15/21 - 0200 52.5 50.8 47 32.0 0.00 70.5 21.9 1.0 SSE | 151 3.4 266 -59 1.6 41.8 3.7
10/15/21 - 0100 53.8 52.3 43 31.1 0.00 72.3 21.9 0.3 S | 171 1.3 266 -59 0.0 43.9 3.7
10/15/21 - 0000 55.4 52.7 41 31.0 0.00 71.7 21.9 0.4 SSE | 163 1.7 265 -61 1.3 46.6 3.7
10/14/21 - 2300 57.8 55.1 37 30.5 0.00 71.5 21.9 0.4 SSE | 168 2.9 265 -63 2.4 47.3 3.7
10/14/21 - 2200 60.7 57.7 33 30.2 0.00 71.5 22.0 0.5 SSE | 164 2.1 264 -67 1.9 50.9 3.7
10/14/21 - 2100 64.5 60.4 29 30.0 0.00 71.3 22.0 0.6 SE | 136 2.4 264 -74 1.9 55.4 3.7
10/14/21 - 2000 68.5 63.9 27 30.9 0.00 71.3 22.0 1.3 S | 183 3.5 264 -81 1.9 61.1 3.7
10/14/21 - 1900 73.7 68.4 23 31.0 0.00 70.7 22.0 2.2 SW | 226 5.8 263 -88 3.7 70.7 3.8
10/14/21 - 1800 78.3 73.6 20 31.8 0.00 70.6 21.9 3.1 WSW | 252 7.7 262 -33 5.3 80.6 3.8
10/14/21 - 1700 81.5 78.0 15 28.8 0.00 70.5 21.9 1.8 SSE | 150 6.3 262 102 4.6 83.5 3.8
10/14/21 - 1600 81.2 79.2 16 30.3 0.00 70.0 21.8 2.1 ENE | 60 6.6 262 238 3.2 85.6 3.8
10/14/21 - 1500 82.0 80.2 17 31.5 0.00 69.8 21.8 2.5 NE | 54 7.1 262 343 3.6 86.7 3.8
10/14/21 - 1400 81.8 79.4 15 28.7 0.00 69.6 21.7 1.9 NE | 37 5.4 261 410 2.4 86.8 3.8
10/14/21 - 1300 80.1 77.6 16 28.9 0.00 69.1 21.6 1.5 NE | 44 5.3 261 443 2.5 86.3 3.8
10/14/21 - 1200 78.8 73.1 18 28.6 0.00 69.5 21.6 1.3 ENE | 61 4.5 262 420 3.2 83.9 3.8
10/14/21 - 1100 73.0 67.3 21 28.6 0.00 69.0 21.6 1.1 NE | 46 3.4 262 355 2.2 76.7 3.7
10/14/21 - 1000 67.7 61.0 31 32.8 0.00 69.3 21.7 0.7 NE | 39 3.5 262 262 1.6 68.4 3.7
10/14/21 - 0900 61.6 48.8 43 34.0 0.00 69.4 21.7 0.2 ENE | 59 1.4 264 115 0.3 53.9 3.7
10/14/21 - 0800 48.8 42.6 59 30.8 0.00 69.7 21.7 0.2 SSE | 160 1.2 267 -26 0.0 37.1 3.7
10/14/21 - 0700 44.1 42.8 60 30.4 0.00 69.8 21.8 0.2 SSE | 159 1.7 267 -53 1.0 34.0 3.7
10/14/21 - 0600 43.9 43.0 54 28.0 0.00 70.6 21.8 0.3 SSE | 163 1.3 267 -54 0.8 35.7 3.7
10/14/21 - 0500 45.3 43.4 52 27.6 0.00 71.3 21.8 0.2 SSE | 150 1.6 267 -55 0.0 37.9 3.7
10/14/21 - 0400 46.1 45.0 49 27.2 0.00 71.0 21.8 0.3 SSE | 153 1.8 266 -56 1.0 37.9 3.7
10/14/21 - 0300 47.2 45.9 46 26.9 0.00 71.5 21.9 0.5 SSE | 150 1.7 266 -58 0.7 37.3 3.7
10/14/21 - 0200 47.9 46.5 40 24.2 0.00 71.0 21.9 0.3 SSE | 156 1.5 266 -58 0.8 39.2 3.7
10/14/21 - 0100 49.2 47.6 38 23.7 0.00 71.0 21.9 0.6 SSE | 154 1.7 265 -59 1.2 40.3 3.7
10/14/21 - 0000 51.4 49.0 36 24.2 0.00 71.2 21.9 0.3 SSE | 166 1.5 265 -60 1.1 41.3 3.7
10/13/21 - 2300 52.9 51.0 36 25.7 0.00 72.2 21.9 0.4 SSE | 162 1.5 264 -64 0.7 42.6 3.7
10/13/21 - 2200 56.0 52.9 34 26.3 0.00 71.2 22.0 0.4 SSE | 163 1.7 264 -68 1.9 44.6 3.7
10/13/21 - 2100 61.1 55.5 28 25.3 0.00 71.6 22.0 0.5 SSE | 167 1.8 264 -73 1.3 52.6 3.7
10/13/21 - 2000 64.4 61.2 22 23.6 0.00 71.2 22.0 2.5 SW | 215 6.6 263 -86 4.3 58.9 3.7
10/13/21 - 1900 68.6 64.2 20 23.2 0.00 71.5 22.0 3.0 WSW | 257 6.8 263 -89 6.3 66.4 3.7
10/13/21 - 1800 73.5 68.5 13 18.3 0.00 71.3 21.9 3.8 W | 272 11.6 262 -29 7.6 76.2 3.8
10/13/21 - 1700 75.5 72.9 13 20.7 0.00 71.1 21.9 5.0 WSW | 242 10.6 262 120 8.8 80.8 3.8
10/13/21 - 1600 76.5 74.6 13 20.3 0.00 70.8 21.9 5.6 SW | 220 11.0 262 257 7.6 85.4 3.8
10/13/21 - 1500 78.6 75.9 11 17.6 0.00 70.2 21.8 3.3 S | 181 11.2 261 354 8.6 86.1 3.8
10/13/21 - 1400 77.8 73.5 10 15.6 0.00 69.7 21.8 2.6 SSW | 194 8.4 261 422 5.4 85.3 3.8
10/13/21 - 1300 76.0 73.5 10 15.7 0.00 69.7 21.8 1.9 E | 89 6.2 261 448 5.5 85.4 3.8
10/13/21 - 1200 75.3 70.3 12 16.6 0.00 69.4 21.7 1.0 NE | 56 3.9 260 423 3.6 82.2 3.8
10/13/21 - 1100 70.1 64.4 16 20.1 0.00 69.5 21.7 1.0 NNE | 20 3.6 261 358 2.8 74.9 3.8
10/13/21 - 1000 64.7 59.2 24 24.6 0.00 70.1 21.8 0.8 NE | 40 2.8 262 264 1.9 66.4 3.7
10/13/21 - 0900 59.8 46.9 32 25.1 0.00 71.0 21.8 0.3 N | 349 2.1 263 121 1.8 50.3 3.7
10/13/21 - 0800 46.7 40.2 51 25.4 0.00 70.8 21.8 0.3 SSE | 152 1.5 267 -25 0.0 34.2 3.7
10/13/21 - 0700 40.7 39.6 50 22.8 0.00 71.1 21.8 0.3 SSE | 162 1.1 267 -55 0.0 29.5 3.7
10/13/21 - 0600 41.3 40.2 51 24.1 0.00 71.1 21.9 0.2 SSE | 161 1.4 267 -57 0.0 29.0 3.7
10/13/21 - 0500 42.5 40.8 46 22.5 0.00 71.8 21.9 0.2 SSE | 158 1.1 266 -58 0.9 30.2 3.7
10/13/21 - 0400 43.4 42.1 49 24.8 0.00 71.6 22.0 0.2 SSE | 150 1.8 266 -60 0.6 33.2 3.7
10/13/21 - 0300 44.6 42.5 47 24.6 0.00 72.0 22.0 0.5 SSE | 160 1.6 266 -62 0.6 33.3 3.7
10/13/21 - 0200 45.4 44.0 42 23.1 0.00 72.0 22.0 0.6 SSE | 167 1.9 266 -63 0.9 35.5 3.7
10/13/21 - 0100 47.3 45.3 39 22.8 0.00 72.6 22.1 0.2 SSE | 162 2.3 266 -64 1.2 36.8 3.7
10/13/21 - 0000 49.2 46.8 40 24.7 0.00 72.3 22.1 0.6 S | 175 2.6 265 -68 1.3 37.4 3.7
10/12/21 - 2300 52.6 49.0 35 24.5 0.00 72.3 22.1 0.5 SSE | 168 2.5 265 -72 2.1 42.5 3.7
10/12/21 - 2200 56.3 52.1 31 24.8 0.00 72.2 22.1 1.4 S | 179 4.8 264 -78 2.8 47.3 3.7
10/12/21 - 2100 58.0 55.0 31 26.8 0.00 72.4 22.2 2.3 SSW | 207 5.9 264 -83 3.8 49.2 3.7
10/12/21 - 2000 60.5 57.2 29 26.8 0.00 72.1 22.1 2.2 SSW | 204 6.5 264 -87 4.3 57.9 3.7
10/12/21 - 1900 64.1 60.4 24 25.2 0.00 71.9 22.2 4.3 WSW | 238 8.4 263 -91 6.4 64.8 3.7
10/12/21 - 1800 68.5 64.2 19 22.8 0.00 72.4 22.2 5.4 WSW | 254 12.1 262 -29 9.4 73.5 3.8
10/12/21 - 1700 73.2 68.3 14 18.5 0.00 71.8 22.1 3.3 WNW | 292 11.6 262 122 8.5 79.4 3.8
10/12/21 - 1600 73.5 70.8 10 12.0 0.00 71.6 22.0 2.3 NNW | 345 8.1 262 261 6.0 80.6 3.8
10/12/21 - 1500 73.5 70.5 10 12.1 0.00 70.6 22.0 1.9 NW | 315 11.0 260 367 6.8 81.9 3.8
10/12/21 - 1400 72.7 69.7 11 12.9 0.00 71.1 22.0 2.2 NNW | 346 8.2 261 437 8.2 79.7 3.8
10/12/21 - 1300 70.4 67.4 13 15.7 0.00 70.8 21.9 1.7 NW | 320 8.1 261 464 6.0 79.5 3.8
10/12/21 - 1200 68.0 64.1 14 16.7 0.00 71.0 21.9 1.6 N | 1 5.3 261 436 4.6 77.6 3.8
10/12/21 - 1100 65.0 61.6 17 17.4 0.00 71.0 21.9 2.2 NNE | 13 6.9 262 368 4.2 69.7 3.7
10/12/21 - 1000 62.0 59.1 19 18.0 0.00 71.0 22.0 2.7 N | 6 8.7 262 268 3.8 64.4 3.7
10/12/21 - 0900 60.1 53.3 22 19.3 0.00 71.4 22.0 1.0 N | 2 4.5 262 126 4.6 55.0 3.7
10/12/21 - 0800 53.3 44.1 38 22.9 0.00 72.2 22.0 1.0 SE | 129 3.8 266 -36 3.1 42.4 3.7
10/12/21 - 0700 47.0 44.0 41 23.0 0.00 72.7 22.1 1.0 SSE | 161 2.7 266 -66 2.2 36.4 3.7
10/12/21 - 0600 45.9 44.5 41 23.3 0.00 72.5 22.1 0.9 SSE | 165 4.8 266 -67 3.6 37.3 3.7
10/12/21 - 0500 49.5 45.6 38 22.7 0.00 72.6 22.1 1.0 SSE | 166 4.0 266 -68 3.2 38.6 3.7
10/12/21 - 0400 53.9 49.4 31 21.2 0.00 72.5 22.1 1.3 S | 185 5.2 265 -72 3.1 42.8 3.7
10/12/21 - 0300 56.1 50.9 29 22.0 0.00 72.9 22.2 1.1 SSE | 166 5.5 264 -75 3.4 47.4 3.7
10/12/21 - 0200 57.5 55.8 25 21.2 0.00 73.6 22.2 1.4 W | 279 6.0 264 -81 4.4 50.9 3.7
10/12/21 - 0100 58.3 54.2 27 22.7 0.00 73.8 22.3 1.8 WSW | 246 8.4 264 -80 5.6 53.7 3.7
10/12/21 - 0000 61.5 57.6 18 16.5 0.00 73.5 22.3 3.8 WSW | 257 11.5 264 -85 9.7 59.6 3.7
10/11/21 - 2300 61.1 59.6 19 17.6 0.00 73.9 22.3 1.8 WNW | 294 10.7 263 -82 8.3 57.1 3.7
10/11/21 - 2200 61.1 59.9 19 18.1 0.00 73.4 22.3 0.9 NNW | 333 5.0 264 -79 3.3 57.1 3.7
10/11/21 - 2100 62.4 60.9 18 17.4 0.00 73.6 22.3 1.3 NNW | 336 5.8 264 -77 5.6 58.6 3.7
10/11/21 - 2000 63.0 62.2 19 19.3 0.00 73.2 22.3 1.9 N | 350 9.4 263 -71 4.8 61.6 3.7
10/11/21 - 1900 64.6 62.8 19 20.3 0.00 72.8 22.3 2.8 N | 354 9.6 263 -76 7.1 63.7 3.7
10/11/21 - 1800 68.4 64.3 17 19.8 0.00 73.5 22.3 3.0 NNW | 340 11.3 263 -20 8.5 70.7 3.7
10/11/21 - 1700 71.4 68.2 14 18.0 0.00 72.8 22.3 3.7 N | 7 14.4 262 106 7.0 79.0 3.8
10/11/21 - 1600 72.9 69.9 25 32.1 0.00 73.0 22.3 3.3 NNE | 13 9.7 264 133 4.9 83.7 3.7
10/11/21 - 1500 72.8 69.0 47 49.4 0.00 72.6 22.3 2.7 ESE | 103 9.8 265 236 6.5 84.3 3.7
10/11/21 - 1400 70.4 68.0 51 50.5 0.00 72.6 22.3 3.0 SSE | 149 8.2 266 231 6.9 81.8 3.7
10/11/21 - 1300 72.0 68.8 49 50.3 0.00 71.9 22.2 1.6 NE | 46 5.5 266 272 3.9 82.5 3.8
10/11/21 - 1200 71.6 67.7 52 50.9 0.00 71.9 22.1 1.8 ENE | 69 5.4 266 443 3.6 81.3 3.8
10/11/21 - 1100 68.1 63.8 61 52.2 0.00 71.9 22.2 2.3 NE | 53 5.5 266 378 3.8 76.9 3.7
10/11/21 - 1000 64.3 61.4 62 49.7 0.00 72.2 22.2 2.2 ENE | 61 7.4 266 260 3.6 68.7 3.7
10/11/21 - 0900 61.7 53.5 54 42.0 0.00 73.0 22.2 0.6 NE | 49 3.0 266 135 2.0 58.0 3.7
10/11/21 - 0800 53.7 46.7 74 41.0 0.00 73.2 22.3 0.2 SE | 141 1.3 269 -23 0.0 43.4 3.7
10/11/21 - 0700 47.5 46.4 72 38.2 0.00 73.7 22.3 0.2 SSE | 160 1.1 270 -54 0.7 39.9 3.7
10/11/21 - 0600 49.0 47.1 68 38.0 0.00 73.7 22.3 0.2 SSE | 159 1.7 269 -57 1.4 40.5 3.7
10/11/21 - 0500 49.4 47.5 61 35.9 0.00 73.8 22.3 0.4 SSE | 163 2.5 268 -59 1.2 41.0 3.7
10/11/21 - 0400 51.3 49.0 57 35.6 0.00 74.0 22.4 0.4 SSE | 156 1.9 268 -60 1.2 42.3 3.7
10/11/21 - 0300 51.7 50.2 53 34.3 0.00 74.2 22.4 0.6 SSE | 156 1.8 267 -61 0.6 41.1 3.7
10/11/21 - 0200 53.6 51.2 47 32.8 0.00 74.6 22.4 0.4 SSE | 156 1.4 267 -62 0.6 42.9 3.7
10/11/21 - 0100 55.2 53.0 43 32.0 0.00 74.8 22.5 0.4 SSE | 167 1.9 266 -63 1.2 46.0 3.7
10/11/21 - 0000 57.6 54.7 38 31.0 0.00 74.4 22.5 1.1 S | 170 3.2 265 -65 2.4 47.6 3.7
10/10/21 - 2300 60.8 57.3 31 28.8 0.00 74.6 22.5 0.4 SSE | 157 2.6 264 -67 1.4 50.3 3.7
10/10/21 - 2200 63.5 60.6 28 28.8 0.00 74.3 22.5 0.9 SSE | 167 2.6 264 -70 2.1 54.6 3.7
10/10/21 - 2100 66.9 61.1 30 31.2 0.00 74.1 22.5 1.1 S | 174 2.6 264 -74 1.9 56.6 3.7
10/10/21 - 2000 71.8 66.8 24 31.0 0.00 74.8 22.5 1.7 SSW | 206 4.7 264 -84 3.5 66.0 3.7
10/10/21 - 1900 77.0 71.6 18 28.2 0.00 74.0 22.5 3.0 SW | 232 8.4 263 -92 6.3 77.2 3.7
10/10/21 - 1800 81.1 76.8 14 26.4 0.00 73.4 22.5 4.9 WSW | 253 10.3 262 -24 8.2 85.7 3.8
10/10/21 - 1700 83.0 80.5 14 27.8 0.00 73.6 22.4 5.5 WSW | 254 14.4 262 130 10.0 90.6 3.8
10/10/21 - 1600 84.2 82.6 19 36.9 0.00 73.1 22.3 5.1 SSW | 209 11.1 263 265 8.4 93.7 3.8
10/10/21 - 1500 88.7 82.8 17 36.3 0.00 73.6 22.3 2.6 SSE | 155 12.8 262 362 9.2 92.3 3.8
10/10/21 - 1400 86.1 82.3 15 32.7 0.00 72.7 22.2 2.1 SE | 127 7.0 262 433 4.6 91.8 3.8
10/10/21 - 1300 83.1 79.7 18 34.1 0.00 71.0 22.2 2.1 ESE | 106 5.8 262 464 4.6 90.2 3.8
10/10/21 - 1200 80.1 77.5 22 36.4 0.00 72.4 22.1 1.9 E | 100 6.0 263 437 4.2 87.1 3.7
10/10/21 - 1100 77.7 71.8 27 39.0 0.00 72.7 22.2 0.9 ENE | 57 3.3 263 367 3.8 81.1 3.7
10/10/21 - 1000 72.7 66.2 34 39.5 0.00 72.9 22.3 0.9 NNE | 26 3.0 264 272 2.1 71.1 3.7
10/10/21 - 0900 66.3 55.3 47 41.2 0.00 73.0 22.3 0.6 NNE | 30 2.9 266 151 2.7 57.4 3.7
10/10/21 - 0800 55.5 46.3 68 39.4 0.00 73.3 22.3 0.3 SSE | 147 2.6 270 -26 0.9 41.8 3.7
10/10/21 - 0700 46.7 46.0 68 36.5 0.00 73.5 22.3 0.5 SSE | 162 2.2 270 -56 1.0 37.6 3.7
10/10/21 - 0600 47.7 46.4 65 35.9 0.00 74.0 22.3 0.5 SSE | 165 2.9 269 -58 1.4 39.1 3.7
10/10/21 - 0500 48.3 47.0 64 36.3 0.00 73.9 22.4 0.6 SSE | 165 2.8 269 -58 2.3 40.7 3.7
10/10/21 - 0400 49.4 48.1 65 37.6 0.00 74.3 22.4 0.5 SSE | 165 2.1 269 -58 1.4 41.5 3.7
10/10/21 - 0300 51.0 49.2 66 39.0 0.00 74.7 22.4 0.3 S | 170 1.6 269 -60 1.2 42.8 3.7
10/10/21 - 0200 52.2 50.3 62 38.6 0.00 75.0 22.5 0.6 SSE | 157 2.7 269 -62 1.8 42.9 3.7
10/10/21 - 0100 54.0 51.3 59 38.4 0.00 74.9 22.5 0.3 SSE | 159 1.6 269 -62 0.5 43.4 3.7
10/10/21 - 0000 55.6 53.6 57 39.4 0.00 75.0 22.5 0.3 S | 170 1.6 269 -64 1.2 47.4 3.7
10/9/21 - 2300 56.0 55.3 58 41.1 0.00 74.9 22.5 0.7 SSE | 166 3.1 268 -67 2.4 47.6 3.7
10/9/21 - 2200 58.4 55.8 57 41.8 0.00 74.6 22.5 0.6 SSE | 162 1.8 268 -69 0.9 50.4 3.7
10/9/21 - 2100 62.9 58.3 48 41.0 0.00 74.6 22.6 0.7 S | 188 2.7 267 -74 1.9 56.8 3.7
10/9/21 - 2000 67.3 62.8 42 42.0 0.00 74.6 22.6 1.8 SW | 216 5.3 266 -84 4.1 65.1 3.7
10/9/21 - 1900 72.0 67.2 37 41.6 0.00 74.2 22.6 4.1 SW | 226 7.8 266 -86 5.3 72.0 3.7
10/9/21 - 1800 74.4 71.8 31 41.3 0.00 74.7 22.5 4.1 WSW | 248 8.4 265 -12 6.4 79.2 3.7
10/9/21 - 1700 76.4 73.8 34 44.4 0.00 74.0 22.5 5.0 WSW | 243 13.2 265 142 9.0 83.6 3.8
10/9/21 - 1600 80.0 76.1 29 43.0 0.00 73.5 22.4 3.7 W | 276 9.5 264 277 8.0 86.3 3.8
10/9/21 - 1500 79.3 76.8 25 39.5 0.00 73.2 22.4 4.8 W | 261 13.5 264 386 9.3 87.4 3.7
10/9/21 - 1400 78.7 75.0 23 37.0 0.00 73.1 22.3 4.1 WSW | 252 10.8 264 451 7.6 87.0 3.7
10/9/21 - 1300 75.6 72.8 27 38.4 0.00 73.1 22.3 3.4 SW | 222 10.8 264 477 7.6 87.2 3.8
10/9/21 - 1200 73.2 69.2 31 38.3 0.00 73.0 22.3 4.8 SW | 226 9.9 264 452 7.7 83.2 3.7
10/9/21 - 1100 69.7 65.4 36 39.7 0.00 72.6 22.3 3.1 SW | 222 7.8 265 378 6.2 77.0 3.7
10/9/21 - 1000 65.7 62.8 49 44.6 0.00 73.3 22.4 1.8 SSE | 168 5.9 266 277 4.7 67.9 3.7
10/9/21 - 0900 63.0 52.7 69 47.8 0.00 73.8 22.5 0.4 NE | 44 2.4 269 199 1.6 57.2 3.7
10/9/21 - 0800 52.7 46.4 90 45.6 0.00 74.2 22.5 0.2 SE | 140 1.4 333 19 0.0 43.6 3.7
10/9/21 - 0700 47.2 46.2 90 44.0 0.00 73.7 22.5 0.5 S | 172 1.9 355 -14 1.5 39.7 3.7
10/9/21 - 0600 48.1 46.7 89 44.3 0.00 74.0 22.5 0.4 S | 176 1.8 347 -18 0.6 39.5 3.7
10/9/21 - 0500 49.5 47.8 87 44.8 0.00 75.3 22.5 0.2 S | 173 1.3 331 -24 0.6 42.0 3.7
10/9/21 - 0400 49.7 48.2 86 45.1 0.00 75.4 22.5 0.3 SSE | 165 2.1 306 -33 1.3 42.6 3.7
10/9/21 - 0300 50.8 49.3 84 45.4 0.00 75.3 22.6 0.4 SSE | 161 1.8 284 -46 1.0 42.5 3.7
10/9/21 - 0200 52.0 50.6 82 45.9 0.00 75.0 22.6 0.4 S | 169 1.2 273 -55 0.6 43.6 3.7
10/9/21 - 0100 54.6 51.7 77 46.0 0.00 76.7 22.7 0.2 S | 173 1.6 274 -58 1.1 48.1 3.7
10/9/21 - 0000 54.9 53.8 76 46.9 0.00 76.7 22.7 0.5 SSE | 163 2.4 272 -60 1.0 48.6 3.7
10/8/21 - 2300 57.2 54.6 73 46.9 0.00 77.2 22.7 0.6 S | 187 2.9 271 -62 2.2 52.4 3.7
10/8/21 - 2200 59.0 56.9 71 48.1 0.00 76.1 22.7 1.6 S | 185 3.6 270 -66 2.6 55.7 3.7
10/8/21 - 2100 61.0 58.9 67 49.2 0.00 76.1 22.7 1.8 W | 269 7.1 270 -69 5.7 59.8 3.7
10/8/21 - 2000 61.7 60.9 66 49.8 0.00 75.8 22.7 1.7 SW | 217 5.2 269 -72 3.2 59.6 3.7
10/8/21 - 1900 65.2 61.5 63 50.3 0.00 76.5 22.7 2.9 S | 184 7.1 269 -61 5.5 68.7 3.7
10/8/21 - 1800 67.1 65.2 57 50.4 0.00 75.2 22.7 3.8 SSE | 168 10.2 268 21 5.7 74.3 3.7
10/8/21 - 1700 70.4 67.1 52 50.4 0.00 75.8 22.7 3.7 S | 184 7.9 267 114 5.6 78.0 3.7
10/8/21 - 1600 71.5 69.1 50 50.6 0.00 75.6 22.7 4.2 S | 175 8.9 267 327 6.3 85.1 3.7
10/8/21 - 1500 71.3 68.3 52 51.3 0.00 74.5 22.7 3.8 SSW | 195 8.9 266 384 6.5 84.8 3.7
10/8/21 - 1400 70.0 67.9 54 51.5 0.00 75.5 22.7 1.9 E | 86 6.3 268 174 3.8 80.6 3.7
10/8/21 - 1300 68.4 66.6 56 51.3 0.00 76.5 22.7 1.5 ENE | 60 4.3 268 203 3.8 81.2 3.7
10/8/21 - 1200 66.6 63.5 62 51.3 0.00 76.3 22.7 2.8 S | 182 6.6 268 162 5.5 79.4 3.7
10/8/21 - 1100 66.0 63.9 62 51.1 0.00 75.6 22.7 1.3 SSW | 210 5.0 268 75 3.9 72.7 3.7
10/8/21 - 1000 66.6 64.3 61 52.0 0.00 75.1 22.7 1.3 E | 82 5.7 268 244 3.1 70.8 3.7
10/8/21 - 0900 64.4 59.8 74 52.7 0.00 75.5 22.7 2.2 WSW | 252 7.2 269 107 4.6 63.4 3.7
10/8/21 - 0800 59.9 58.3 81 53.0 0.00 75.5 22.8 1.4 SW | 222 4.8 273 18 3.7 58.8 3.7
10/8/21 - 0700 58.9 58.2 84 54.0 0.00 75.8 22.8 2.2 SW | 219 5.5 273 -6 3.3 59.8 3.7
10/8/21 - 0600 58.6 57.8 88 54.7 0.00 75.5 22.8 1.4 SW | 223 4.1 273 -6 2.8 60.8 3.7
10/8/21 - 0500 59.2 58.4 86 54.5 0.00 76.3 22.8 1.7 SSW | 205 4.4 278 -8 3.5 61.9 3.7
10/8/21 - 0400 60.7 59.0 81 54.1 0.00 76.3 22.8 2.0 SSW | 207 6.2 278 -11 4.2 63.4 3.7
10/8/21 - 0300 61.0 60.4 77 53.4 0.00 76.6 22.8 3.0 S | 180 6.6 271 -18 4.8 64.0 3.7
10/8/21 - 0200 61.6 60.8 79 54.5 0.00 76.7 22.9 3.2 S | 176 8.0 271 -16 5.2 64.3 3.7
10/8/21 - 0100 62.0 61.3 77 54.2 0.00 76.0 22.8 1.8 S | 172 5.5 271 -17 4.3 64.3 3.7
10/8/21 - 0000 62.4 61.5 75 54.0 0.00 77.8 22.9 2.4 SSE | 166 7.5 271 -25 4.8 63.8 3.7
10/7/21 - 2300 63.4 62.3 72 53.6 0.00 78.4 22.9 2.3 S | 175 5.5 270 -20 4.1 65.6 3.7
10/7/21 - 2200 63.5 63.1 70 53.6 0.00 77.0 22.9 2.2 SSE | 157 5.4 270 -15 3.8 66.3 3.7
10/7/21 - 2100 63.7 63.2 71 53.8 0.00 76.8 22.9 1.6 SSE | 149 4.5 270 -17 2.5 66.9 3.7
10/7/21 - 2000 64.2 63.4 70 54.0 0.00 76.9 22.9 1.7 SE | 142 4.4 270 -20 3.2 67.5 3.7
10/7/21 - 1900 65.6 63.6 69 54.2 0.00 76.3 22.9 2.8 S | 170 6.6 269 -25 5.0 69.4 3.7
10/7/21 - 1800 66.6 65.4 66 54.4 0.00 76.2 22.9 2.9 S | 187 5.5 269 0 4.3 74.7 3.8
10/7/21 - 1700 69.8 66.2 62 54.2 0.00 76.4 22.9 3.4 SSW | 200 11.1 268 100 7.4 83.5 3.7
10/7/21 - 1600 71.5 68.5 55 53.2 0.00 77.0 22.8 4.1 SE | 138 9.9 268 184 7.5 87.9 3.7
10/7/21 - 1500 72.1 68.7 53 52.7 0.00 76.0 22.8 3.3 SSE | 157 9.9 266 309 6.7 86.6 3.7
10/7/21 - 1400 69.6 67.8 59 53.7 0.00 77.4 22.8 2.9 S | 176 8.5 268 193 4.7 86.4 3.7
10/7/21 - 1300 70.0 68.2 59 54.2 0.00 76.9 22.8 1.8 ESE | 122 6.3 268 140 3.6 84.3 3.7
10/7/21 - 1200 68.6 67.2 64 55.0 0.00 76.7 22.8 1.6 ESE | 112 4.9 268 120 3.6 81.7 3.7
10/7/21 - 1100 68.4 66.2 69 56.4 0.00 77.3 22.8 1.2 E | 91 4.0 269 160 3.2 82.1 3.7
10/7/21 - 1000 66.7 63.2 78 57.0 0.00 76.6 22.8 0.6 NE | 43 2.8 269 100 1.7 80.0 3.7
10/7/21 - 0900 63.5 61.6 82 56.9 0.00 77.2 22.9 0.3 NE | 54 1.9 271 25 1.5 68.5 3.7
10/7/21 - 0800 61.8 61.1 84 56.6 0.00 75.9 22.9 1.2 SSE | 153 3.7 272 -2 3.2 65.6 3.7
10/7/21 - 0700 62.2 61.6 80 55.6 0.00 76.9 22.9 0.8 E | 79 3.9 272 -11 2.4 64.5 3.7
10/7/21 - 0600 61.9 61.3 78 54.7 0.00 76.9 22.9 0.4 ENE | 70 3.0 271 -13 1.3 64.2 3.7
10/7/21 - 0500 61.6 60.9 79 54.6 0.00 77.2 22.9 0.2 ENE | 77 1.3 271 -14 1.1 63.6 3.7
10/7/21 - 0400 61.2 59.9 81 54.6 0.00 76.4 22.9 0.9 SW | 232 3.9 272 -11 3.0 63.2 3.7
10/7/21 - 0300 60.1 58.2 82 54.0 0.00 78.4 23.0 1.4 SW | 219 5.5 272 -17 4.2 61.0 3.7
10/7/21 - 0200 58.9 58.2 83 53.3 0.00 80.5 23.0 0.3 SSE | 164 1.4 273 -40 0.0 56.6 3.7
10/7/21 - 0100 59.1 58.0 81 52.9 0.00 79.6 23.0 0.3 S | 174 1.4 272 -41 0.0 56.1 3.7
10/7/21 - 0000 61.2 58.6 79 52.9 0.00 79.1 23.0 0.6 S | 186 2.6 272 -50 1.4 55.0 3.7
10/6/21 - 2300 61.7 60.7 77 53.7 0.00 78.5 23.0 0.8 SSW | 196 3.0 271 -57 1.6 55.8 3.7
10/6/21 - 2200 63.8 61.4 72 53.7 0.00 78.2 23.1 0.8 SSW | 192 3.7 271 -56 2.0 60.2 3.7
10/6/21 - 2100 66.9 63.7 67 54.2 0.00 78.2 23.0 2.3 SSW | 210 8.0 269 -64 5.7 65.3 3.7
10/6/21 - 2000 69.4 66.7 60 53.6 0.00 78.0 23.1 2.7 SW | 226 7.6 268 -70 5.5 67.9 3.7
10/6/21 - 1900 72.0 69.4 54 53.3 0.00 77.9 23.0 2.1 WSW | 258 6.3 268 -57 3.9 73.4 3.7
10/6/21 - 1800 73.3 71.8 53 54.6 0.00 77.8 23.0 2.3 WSW | 253 7.0 267 -9 4.7 78.7 3.7
10/6/21 - 1700 78.4 73.2 51 55.8 0.00 77.6 22.9 3.6 S | 177 9.2 267 88 6.9 84.8 3.8
10/6/21 - 1600 78.4 76.6 48 56.4 0.00 77.0 22.9 2.0 ESE | 113 6.6 266 270 4.3 82.9 3.8
10/6/21 - 1500 78.1 75.7 49 56.5 0.00 75.8 22.9 2.3 ENE | 73 6.4 266 370 3.7 82.7 3.8
10/6/21 - 1400 77.0 75.2 51 56.6 0.00 75.6 22.8 2.2 NE | 36 6.2 266 409 4.1 83.3 3.8
10/6/21 - 1300 76.7 73.5 53 56.6 0.00 76.4 22.8 1.7 NE | 43 5.1 266 416 4.1 85.1 3.8
10/6/21 - 1200 74.8 70.4 56 56.3 0.00 77.7 22.8 1.2 N | 11 5.2 267 394 3.9 80.9 3.8
10/6/21 - 1100 71.0 67.7 63 56.0 0.00 77.7 22.8 1.3 N | 10 4.5 267 358 3.7 75.1 3.7
10/6/21 - 1000 67.8 63.3 74 56.1 0.00 77.1 22.9 1.0 N | 3 4.8 268 184 2.6 72.2 3.7
10/6/21 - 0900 63.4 59.4 83 56.6 0.00 77.2 22.9 1.1 NE | 40 3.6 271 177 1.5 67.4 3.7
10/6/21 - 0800 59.5 55.2 91 54.1 0.00 77.3 22.9 0.1 SSE | 160 1.8 290 37 1.5 59.2 3.7
10/6/21 - 0700 56.0 54.8 90 52.7 0.00 77.7 23.0 0.2 SSE | 166 1.2 344 -12 0.0 49.8 3.7
10/6/21 - 0600 57.1 55.8 90 53.3 0.00 77.8 23.0 0.1 SSE | 162 0.9 336 -18 0.0 49.8 3.7
10/6/21 - 0500 57.7 56.3 88 53.4 0.00 78.1 23.0 0.3 S | 176 1.6 316 -22 0.9 50.0 3.7
10/6/21 - 0400 58.6 56.9 86 53.5 0.00 78.1 23.1 0.3 SSE | 167 1.1 289 -34 0.6 51.4 3.7
10/6/21 - 0300 58.9 57.9 83 53.4 0.00 78.4 23.1 0.3 SSE | 154 1.5 271 -48 0.0 51.7 3.7
10/6/21 - 0200 60.0 58.5 80 53.2 0.00 78.5 23.1 0.3 SSE | 159 1.3 274 -52 1.1 52.6 3.7
10/6/21 - 0100 61.1 59.8 77 53.1 0.00 78.7 23.1 0.2 SSE | 154 1.2 273 -53 0.0 53.7 3.7
10/6/21 - 0000 62.3 60.7 75 53.5 0.00 78.9 23.1 0.6 S | 182 1.8 272 -55 1.3 55.8 3.7
10/5/21 - 2300 64.6 61.5 72 53.6 0.00 79.1 23.1 0.5 S | 177 1.9 270 -57 0.9 59.6 3.7
10/5/21 - 2200 67.4 64.5 64 53.8 0.00 78.9 23.1 1.1 SSW | 193 4.0 269 -63 2.6 61.9 3.7
10/5/21 - 2100 69.8 66.8 59 53.2 0.00 79.1 23.1 1.2 SW | 230 4.0 268 -65 3.5 65.5 3.7
10/5/21 - 2000 71.0 69.2 54 52.6 0.00 79.0 23.1 1.7 WSW | 257 5.8 267 -68 4.4 65.4 3.7
10/5/21 - 1900 74.6 70.5 47 51.3 0.00 79.2 23.1 1.0 S | 178 4.8 266 -68 3.3 70.0 3.8
10/5/21 - 1800 79.5 74.6 40 51.1 0.00 80.2 23.1 3.9 S | 185 7.3 266 18 6.2 75.3 3.8
10/5/21 - 1700 80.5 79.3 36 50.4 0.00 79.8 23.1 2.6 SSE | 156 6.6 265 156 5.1 77.1 3.8
10/5/21 - 1600 80.5 78.8 39 52.5 0.00 79.0 23.1 3.5 S | 177 8.8 265 298 6.7 78.4 3.8
10/5/21 - 1500 79.8 78.4 41 53.3 0.00 78.8 23.1 4.7 SSW | 202 8.8 265 407 7.1 77.9 3.8
10/5/21 - 1400 81.7 77.4 43 54.3 0.00 78.2 23.0 5.3 SSE | 168 12.8 265 475 8.4 77.9 3.8
10/5/21 - 1300 81.4 79.5 40 54.0 0.00 78.0 23.0 3.1 E | 80 8.2 264 492 5.1 78.0 3.8
10/5/21 - 1200 81.6 78.2 41 54.2 0.00 77.1 23.0 2.3 E | 101 8.7 264 462 4.3 78.2 3.8
10/5/21 - 1100 80.6 76.0 44 54.5 0.01 76.8 23.1 1.3 WSW | 247 6.4 264 391 4.7 77.7 3.8
10/5/21 - 1000 77.0 71.5 50 54.4 0.00 76.6 23.1 1.5 W | 271 5.1 266 290 4.0 71.7 3.7
10/5/21 - 0900 71.7 67.7 61 55.7 0.00 77.3 23.2 3.5 SW | 221 7.7 268 161 5.7 66.6 3.7
10/5/21 - 0800 67.9 64.2 73 57.0 0.00 77.8 23.2 2.9 SSW | 205 9.2 271 38 6.7 64.2 3.7
10/5/21 - 0700 64.4 63.7 80 57.7 0.00 78.8 23.2 0.8 SSW | 213 2.8 273 -6 1.8 63.4 3.7
10/5/21 - 0600 64.5 63.6 80 57.6 0.00 79.9 23.3 1.4 S | 178 3.9 275 -6 1.9 63.6 3.7
10/5/21 - 0500 64.2 63.5 81 57.8 0.00 78.6 23.3 0.8 W | 272 4.0 273 -7 2.9 62.5 3.7
10/5/21 - 0400 63.9 63.3 83 58.4 0.00 78.6 23.3 0.7 ENE | 76 3.9 288 -8 3.0 63.2 3.7
10/5/21 - 0300 64.2 63.6 84 59.0 0.01 79.6 23.3 0.8 SE | 132 3.4 303 -8 1.3 64.0 3.7
10/5/21 - 0200 64.2 63.7 84 59.1 0.00 80.9 23.3 0.8 SE | 131 2.3 290 -7 0.9 64.0 3.7
10/5/21 - 0100 64.9 63.9 80 58.2 0.00 81.8 23.3 0.8 N | 9 3.8 275 -7 2.4 64.0 3.7
10/5/21 - 0000 64.8 64.0 79 57.8 0.00 79.4 23.4 2.4 SSW | 200 8.0 294 -9 4.6 63.7 3.7
10/4/21 - 2300 67.6 64.6 68 55.8 0.04 79.3 23.4 2.6 E | 100 11.9 396 -12 4.5 63.9 3.7
10/4/21 - 2200 71.8 66.2 55 51.1 0.02 79.4 23.3 2.7 SE | 140 15.0 324 -36 6.6 64.2 3.7
10/4/21 - 2100 76.5 67.2 33 41.4 0.00 79.5 23.3 4.1 SSW | 211 8.6 266 -41 5.8 73.6 3.7
10/4/21 - 2000 76.6 72.6 27 38.5 0.00 79.4 23.1 4.7 SSW | 208 8.7 263 -56 6.4 72.5 3.7
10/4/21 - 1900 72.8 71.0 40 46.1 0.00 79.2 23.2 2.5 WSW | 258 7.2 264 -41 5.1 70.9 3.7
10/4/21 - 1800 86.3 72.6 24 37.0 0.00 78.9 23.1 3.0 ESE | 112 11.7 264 -39 9.3 88.6 3.8
10/4/21 - 1700 88.1 86.2 16 35.0 0.00 78.6 23.0 3.0 SSW | 211 6.9 262 25 5.2 94.6 3.8
10/4/21 - 1600 90.8 87.7 14 33.4 0.00 78.2 23.0 3.9 SSW | 204 8.2 262 122 6.1